createdAt,value
2019-02-22T00:01:23.824Z,6.40
2019-02-22T00:03:52.386Z,6.00
2019-02-22T00:06:21.007Z,5.77
2019-02-22T00:08:49.742Z,4.17
2019-02-22T00:11:18.339Z,4.40
2019-02-22T00:13:47.116Z,4.07
2019-02-22T00:16:15.803Z,3.70
2019-02-22T00:18:44.527Z,3.20
2019-02-22T00:21:14.436Z,2.90
2019-02-22T00:23:43.807Z,3.63
2019-02-22T00:26:13.293Z,3.10
2019-02-22T00:28:42.120Z,3.47
2019-02-22T00:31:11.158Z,3.33
2019-02-22T00:33:39.935Z,3.13
2019-02-22T00:36:10.455Z,3.50
2019-02-22T00:38:39.123Z,3.80
2019-02-22T00:41:07.649Z,2.73
2019-02-22T00:43:36.235Z,2.70
2019-02-22T00:46:06.234Z,2.90
2019-02-22T00:48:35.030Z,3.40
2019-02-22T00:51:05.286Z,2.73
2019-02-22T00:53:34.146Z,4.40
2019-02-22T00:56:04.384Z,3.37
2019-02-22T00:58:32.978Z,3.97
2019-02-22T01:01:01.667Z,3.90
2019-02-22T01:03:30.248Z,3.73
2019-02-22T01:05:58.819Z,3.43
2019-02-22T01:08:27.769Z,3.40
2019-02-22T01:10:56.431Z,3.10
2019-02-22T01:13:25.287Z,3.00
2019-02-22T09:55:08.524Z,2.27
2019-02-22T09:57:37.573Z,2.00
2019-02-22T10:00:10.032Z,1.80
2019-02-22T10:02:39.503Z,2.13
2019-02-22T10:05:10.395Z,2.13
2019-02-22T10:07:39.620Z,1.90
2019-02-22T10:10:10.609Z,2.47
2019-02-22T10:12:42.961Z,2.00
2019-02-22T10:15:12.530Z,2.30
2019-02-22T10:17:41.548Z,2.40
2019-02-22T10:20:11.579Z,3.20
2019-02-22T10:22:42.364Z,2.20
2019-02-22T10:25:12.215Z,1.83
2019-02-22T10:27:42.932Z,2.67
2019-02-22T10:30:13.126Z,2.37
2019-02-22T10:32:42.337Z,2.97
2019-02-22T10:35:11.616Z,2.60
2019-02-22T10:37:40.832Z,2.53
2019-02-22T10:40:10.574Z,2.57
2019-02-22T10:42:39.617Z,2.20
2019-02-22T10:45:10.446Z,2.10
2019-02-22T10:47:39.353Z,2.50
2019-02-22T10:50:09.549Z,2.27
2019-02-22T10:52:38.939Z,2.17
2019-02-22T10:55:10.571Z,2.20
2019-02-22T10:57:40.009Z,2.30
2019-02-22T11:00:13.043Z,2.50
2019-02-22T11:02:42.143Z,1.93
2019-02-22T11:05:12.762Z,2.33
2019-02-22T11:07:42.333Z,2.57
2019-02-22T11:10:13.021Z,2.40
2019-02-22T11:12:42.605Z,2.20
2019-02-22T11:15:12.863Z,2.60
2019-02-22T11:17:42.349Z,2.03
2019-02-22T11:20:12.125Z,2.40
2019-02-22T11:22:41.121Z,1.93
2019-02-22T11:27:44.674Z,2.57
2019-02-22T11:30:16.627Z,2.13
2019-02-22T11:32:46.500Z,2.20
2019-02-22T11:35:15.579Z,1.97
2019-02-22T11:37:44.862Z,2.37
2019-02-22T11:40:14.248Z,2.08
